Time;durP1;ratioP1;P1;durP2;ratioP2;P2;SDS_P1;SDS_P2;PMS_P1;PMS_P2;Temp;Humidity;BMP_temperature;BMP_pressure;BME280_temperature;BME280_humidity;BME280_pressure;Samples;Min_cycle;Max_cycle;Signal;HPM_P1;HPM_P2
2020/12/26 00:02:05;;;;;;;15.20;5.15;;;13.60;99.90;;;;;;4818756;29;20038;-78
2020/12/26 00:04:31;;;;;;;9.82;4.53;;;13.50;99.90;;;;;;4821648;29;20042;-78
2020/12/26 00:06:57;;;;;;;7.57;4.65;;;13.50;99.90;;;;;;4805634;29;20035;-78
2020/12/26 00:09:23;;;;;;;13.55;4.70;;;13.50;99.90;;;;;;4827185;29;20047;-78
2020/12/26 00:11:51;;;;;;;14.60;4.68;;;13.50;99.90;;;;;;4821644;29;20034;-78
2020/12/26 00:14:18;;;;;;;10.88;4.35;;;13.50;99.90;;;;;;4802190;29;20030;-78
2020/12/26 00:16:44;;;;;;;13.07;4.20;;;13.60;99.90;;;;;;4814595;29;20485;-78
2020/12/26 00:19:14;;;;;;;9.20;4.68;;;13.60;99.90;;;;;;4836466;29;20121;-78
2020/12/26 00:21:42;;;;;;;6.00;3.50;;;13.60;99.90;;;;;;4806258;29;20031;-78
2020/12/26 00:24:08;;;;;;;14.50;4.00;;;13.50;99.90;;;;;;4802977;29;20035;-78
2020/12/26 00:26:34;;;;;;;9.75;3.35;;;13.50;99.90;;;;;;4813807;29;20093;-78
2020/12/26 00:29:00;;;;;;;8.40;3.40;;;13.60;99.90;;;;;;4821466;29;20126;-78
2020/12/26 00:31:26;;;;;;;7.78;3.50;;;13.60;99.90;;;;;;4809361;29;20387;-78
2020/12/26 00:33:52;;;;;;;7.90;4.28;;;13.60;99.90;;;;;;4803087;29;20406;-78
2020/12/26 00:36:18;;;;;;;13.40;3.90;;;13.70;99.90;;;;;;4815884;29;20030;-78
2020/12/26 00:38:44;;;;;;;11.23;4.20;;;13.70;99.90;;;;;;4823189;29;20134;-78
2020/12/26 00:41:14;;;;;;;11.77;3.25;;;13.70;99.90;;;;;;4815055;29;20054;-78
2020/12/26 00:43:41;;;;;;;10.57;4.03;;;13.70;99.90;;;;;;4814755;29;20035;-78
2020/12/26 00:46:07;;;;;;;12.82;4.07;;;13.80;99.90;;;;;;4820597;29;20037;-77
2020/12/26 00:48:33;;;;;;;7.65;3.25;;;13.80;99.90;;;;;;4811967;29;20940;-78
2020/12/26 00:50:59;;;;;;;10.07;3.75;;;13.70;99.90;;;;;;4811946;29;20152;-78
2020/12/26 00:53:26;;;;;;;7.55;2.83;;;13.80;99.90;;;;;;4819656;29;20085;-78
2020/12/26 00:55:53;;;;;;;8.73;3.75;;;13.80;99.90;;;;;;4818385;29;20511;-78
2020/12/26 00:58:19;;;;;;;9.90;3.00;;;13.80;99.90;;;;;;4822233;29;20037;-78
2020/12/26 01:00:45;;;;;;;9.70;3.13;;;13.80;99.90;;;;;;4818188;29;20765;-78
2020/12/26 01:03:40;;;;;;;9.23;3.35;;;13.80;99.90;;;;;;4792386;29;20057;-78
2020/12/26 01:06:15;;;;;;;8.23;3.17;;;13.90;99.90;;;;;;4820416;29;20026;-78
2020/12/26 01:08:41;;;;;;;10.82;3.53;;;13.80;99.90;;;;;;4799372;29;20134;-78
2020/12/26 01:11:08;;;;;;;7.63;2.70;;;13.80;99.90;;;;;;4820516;29;20058;-78
2020/12/26 01:13:34;;;;;;;7.30;3.22;;;13.80;99.90;;;;;;4811327;29;20779;-78
2020/12/26 01:16:00;;;;;;;6.60;3.35;;;13.80;99.90;;;;;;4820309;29;20426;-78
2020/12/26 01:18:29;;;;;;;11.73;3.38;;;13.80;99.90;;;;;;4826739;29;20503;-78
2020/12/26 01:20:58;;;;;;;10.55;3.35;;;13.80;99.90;;;;;;4815588;29;20046;-78
2020/12/26 01:23:24;;;;;;;4.78;2.85;;;13.80;99.90;;;;;;4813204;29;20038;-78
2020/12/26 01:25:50;;;;;;;8.10;3.30;;;13.80;99.90;;;;;;4820115;29;20394;-78
2020/12/26 01:28:17;;;;;;;8.73;2.60;;;13.90;99.90;;;;;;4816690;29;20079;-78
2020/12/26 01:30:44;;;;;;;5.97;2.45;;;13.90;99.90;;;;;;4820233;29;20036;-78
2020/12/26 01:33:10;;;;;;;8.95;2.83;;;14.00;99.90;;;;;;4815897;29;20062;-78
2020/12/26 01:35:36;;;;;;;5.88;2.58;;;14.00;99.90;;;;;;4820122;29;20382;-77
2020/12/26 01:38:02;;;;;;;5.05;3.08;;;14.00;99.90;;;;;;4814087;29;20023;-78
2020/12/26 01:40:28;;;;;;;8.98;2.95;;;14.00;99.90;;;;;;4828255;29;20125;-78
2020/12/26 01:42:54;;;;;;;4.72;3.33;;;14.00;99.90;;;;;;4817702;29;20135;-77
2020/12/26 01:45:20;;;;;;;10.20;3.10;;;14.00;99.90;;;;;;4812573;29;20034;-78
2020/12/26 01:47:47;;;;;;;6.60;2.85;;;14.00;99.90;;;;;;4819723;29;20031;-77
2020/12/26 01:50:14;;;;;;;7.38;2.92;;;14.00;99.90;;;;;;4820888;29;20030;-78
2020/12/26 01:52:40;;;;;;;7.82;2.83;;;14.00;99.90;;;;;;4819997;29;20026;-78
2020/12/26 01:55:07;;;;;;;8.20;2.42;;;14.00;99.90;;;;;;4817129;29;20125;-78
2020/12/26 01:57:35;;;;;;;4.68;2.55;;;14.10;99.90;;;;;;4820234;29;20098;-78
2020/12/26 02:00:06;;;;;;;5.93;3.83;;;14.10;99.90;;;;;;4800445;29;20137;-78
2020/12/26 02:02:42;;;;;;;5.95;2.58;;;14.10;99.90;;;;;;4816616;29;20045;-78
2020/12/26 02:05:08;;;;;;;8.57;3.00;;;14.10;99.90;;;;;;4816235;29;20408;-78
2020/12/26 02:07:35;;;;;;;9.57;3.58;;;14.10;99.90;;;;;;4818448;29;20438;-78
2020/12/26 02:10:01;;;;;;;6.47;2.85;;;14.20;99.90;;;;;;4819365;29;20029;-78
2020/12/26 02:12:29;;;;;;;5.18;2.88;;;14.10;99.90;;;;;;4805161;29;20030;-78
2020/12/26 02:14:55;;;;;;;4.63;2.58;;;14.20;99.90;;;;;;4817069;29;20026;-78
2020/12/26 02:17:28;;;;;;;10.70;3.00;;;14.10;99.90;;;;;;4819961;29;20030;-77
2020/12/26 02:19:54;;;;;;;8.10;2.95;;;14.20;99.90;;;;;;4805337;29;20125;-78
2020/12/26 02:22:20;;;;;;;7.13;2.58;;;14.20;99.90;;;;;;4822696;29;20034;-78
2020/12/26 02:24:47;;;;;;;7.00;2.67;;;14.20;99.90;;;;;;4820403;29;20077;-78
2020/12/26 02:27:13;;;;;;;8.77;2.55;;;14.20;99.90;;;;;;4821200;29;20142;-78
2020/12/26 02:29:39;;;;;;;6.30;1.92;;;14.20;99.90;;;;;;4821896;29;20038;-78
2020/12/26 02:32:05;;;;;;;4.95;2.03;;;14.20;99.90;;;;;;4814009;29;20431;-78
2020/12/26 02:34:31;;;;;;;4.90;1.98;;;14.20;99.90;;;;;;4811524;29;20481;-78
2020/12/26 02:36:57;;;;;;;6.55;1.90;;;14.20;99.90;;;;;;4821012;29;20034;-78
2020/12/26 02:39:23;;;;;;;8.73;2.50;;;14.20;99.90;;;;;;4822780;29;20121;-78
2020/12/26 02:41:49;;;;;;;6.00;2.42;;;14.20;99.90;;;;;;4817250;29;20106;-77
2020/12/26 02:44:16;;;;;;;7.03;2.08;;;14.20;99.90;;;;;;4816611;29;20061;-78
2020/12/26 02:46:42;;;;;;;10.65;2.75;;;14.20;99.90;;;;;;4819525;29;20477;-78
2020/12/26 02:49:08;;;;;;;10.68;2.70;;;14.20;99.90;;;;;;4819388;29;20041;-78
2020/12/26 02:51:34;;;;;;;4.95;2.33;;;14.20;99.90;;;;;;4825198;29;20036;-78
2020/12/26 02:54:00;;;;;;;9.13;2.08;;;14.20;99.90;;;;;;4821796;29;20638;-78
2020/12/26 02:56:26;;;;;;;7.55;2.47;;;14.20;99.90;;;;;;4821315;29;20087;-78
2020/12/26 02:58:52;;;;;;;8.43;1.83;;;14.20;99.90;;;;;;4816586;29;20443;-78
2020/12/26 03:01:18;;;;;;;4.85;1.98;;;14.20;99.90;;;;;;4819045;29;20544;-78
2020/12/26 03:03:44;;;;;;;6.97;2.97;;;14.20;99.90;;;;;;4805910;29;20596;-78
2020/12/26 03:06:13;;;;;;;3.95;1.73;;;14.10;99.90;;;;;;4813640;29;20467;-78
2020/12/26 03:08:40;;;;;;;6.35;2.50;;;14.20;99.90;;;;;;4820250;29;20031;-78
2020/12/26 03:11:06;;;;;;;8.02;2.72;;;14.20;99.90;;;;;;4822268;29;20050;-78
2020/12/26 03:13:32;;;;;;;6.28;2.20;;;14.10;99.90;;;;;;4817234;29;20933;-78
2020/12/26 03:15:58;;;;;;;6.20;2.45;;;14.10;99.90;;;;;;4818479;29;20397;-78
2020/12/26 03:18:25;;;;;;;5.57;2.10;;;14.10;99.90;;;;;;4819046;29;20446;-78
2020/12/26 03:20:51;;;;;;;5.50;1.95;;;14.10;99.90;;;;;;4820785;29;20049;-78
2020/12/26 03:23:17;;;;;;;3.63;2.08;;;14.10;99.90;;;;;;4822253;29;20034;-78
2020/12/26 03:25:43;;;;;;;6.20;2.20;;;14.10;99.90;;;;;;4827875;29;20117;-78
2020/12/26 03:28:09;;;;;;;10.10;2.70;;;14.10;99.90;;;;;;4814588;29;20047;-78
2020/12/26 03:30:35;;;;;;;4.18;2.05;;;14.20;99.90;;;;;;4818960;29;20528;-78
2020/12/26 03:33:02;;;;;;;6.85;2.58;;;14.20;99.90;;;;;;4815282;29;20027;-78
2020/12/26 03:35:28;;;;;;;4.72;2.50;;;14.20;99.90;;;;;;4819545;29;20045;-78
2020/12/26 03:37:54;;;;;;;11.20;2.92;;;14.20;99.90;;;;;;4819662;29;20488;-78
2020/12/26 03:40:20;;;;;;;4.75;1.95;;;14.20;99.90;;;;;;4818135;29;20058;-78
2020/12/26 03:42:46;;;;;;;8.63;2.75;;;14.20;99.90;;;;;;4820046;29;20518;-78
2020/12/26 03:45:13;;;;;;;6.10;2.72;;;14.20;99.90;;;;;;4821809;29;20031;-78
2020/12/26 03:47:39;;;;;;;6.10;1.50;;;14.20;99.90;;;;;;4820702;29;20477;-79
2020/12/26 03:50:05;;;;;;;6.90;2.42;;;14.20;99.90;;;;;;4819782;29;20588;-78
2020/12/26 03:52:31;;;;;;;6.25;2.47;;;14.20;99.90;;;;;;4819851;29;20034;-78
2020/12/26 03:54:57;;;;;;;5.63;2.20;;;14.10;99.90;;;;;;4820071;29;20550;-78
2020/12/26 03:57:24;;;;;;;6.82;2.00;;;14.10;99.90;;;;;;4817667;29;20408;-78
2020/12/26 03:59:50;;;;;;;4.75;2.40;;;14.10;99.90;;;;;;4819916;29;20409;-78
2020/12/26 04:02:16;;;;;;;7.53;3.53;;;14.10;99.90;;;;;;4811602;29;20045;-78
2020/12/26 04:04:42;;;;;;;9.18;2.30;;;14.10;99.90;;;;;;4817376;29;20490;-78
2020/12/26 04:07:08;;;;;;;11.32;3.90;;;14.10;99.90;;;;;;4817495;29;20050;-78
2020/12/26 04:09:34;;;;;;;7.18;2.80;;;14.10;99.90;;;;;;4817673;29;20127;-78
2020/12/26 04:12:00;;;;;;;7.03;2.85;;;14.00;99.90;;;;;;4815210;29;20087;-78
2020/12/26 04:14:26;;;;;;;11.10;3.10;;;14.10;99.90;;;;;;4812601;29;20042;-78
2020/12/26 04:16:59;;;;;;;10.52;3.25;;;14.00;99.90;;;;;;4821246;29;20042;-78
2020/12/26 04:19:26;;;;;;;6.55;2.58;;;14.00;99.90;;;;;;4805195;29;20042;-78
2020/12/26 04:21:53;;;;;;;9.80;3.47;;;14.00;99.90;;;;;;4813346;29;20041;-78
2020/12/26 04:24:19;;;;;;;10.40;3.35;;;14.00;99.90;;;;;;4823042;29;20563;-78
2020/12/26 04:26:46;;;;;;;9.20;2.75;;;14.00;99.90;;;;;;4824839;29;20057;-78
2020/12/26 04:29:12;;;;;;;10.60;3.22;;;14.00;99.90;;;;;;4817024;29;20490;-78
2020/12/26 04:31:38;;;;;;;13.20;3.55;;;14.00;99.90;;;;;;4796650;29;20035;-78
2020/12/26 04:34:04;;;;;;;6.78;3.28;;;14.00;99.90;;;;;;4809791;29;20038;-77
2020/12/26 04:36:30;;;;;;;9.15;3.22;;;14.00;99.90;;;;;;4820006;29;20417;-77
2020/12/26 04:38:56;;;;;;;11.65;3.67;;;14.00;99.90;;;;;;4818437;29;20075;-78
2020/12/26 04:41:23;;;;;;;5.00;2.83;;;14.00;99.90;;;;;;4833122;29;20026;-78
2020/12/26 04:43:49;;;;;;;6.85;2.53;;;14.00;99.90;;;;;;4814182;29;20489;-78
2020/12/26 04:46:19;;;;;;;7.93;3.10;;;13.90;99.90;;;;;;4801081;29;20456;-78
2020/12/26 04:49:02;;;;;;;7.22;2.50;;;14.00;99.90;;;;;;4811262;29;20031;-78
2020/12/26 04:51:32;;;;;;;9.60;2.80;;;13.90;99.90;;;;;;4808366;29;20066;-78
2020/12/26 04:54:25;;;;;;;4.97;3.55;;;13.90;99.90;;;;;;4819829;29;20027;-78
2020/12/26 04:56:56;;;;;;;5.82;3.55;;;13.90;99.90;;;;;;4812608;29;20408;-78
2020/12/26 04:59:23;;;;;;;7.10;3.42;;;14.00;99.90;;;;;;4817529;29;20039;-78
2020/12/26 05:01:51;;;;;;;6.72;2.97;;;14.00;99.90;;;;;;4819628;29;20475;-78
2020/12/26 05:04:17;;;;;;;8.90;3.47;;;14.00;99.90;;;;;;4811617;29;20034;-78
2020/12/26 05:06:49;;;;;;;11.25;3.85;;;14.00;99.90;;;;;;4820815;29;20038;-78
2020/12/26 05:09:17;;;;;;;5.45;3.40;;;14.00;99.90;;;;;;4804243;29;20039;-78
2020/12/26 05:11:58;;;;;;;8.38;3.67;;;14.00;99.90;;;;;;4819269;29;20035;-78
2020/12/26 05:14:26;;;;;;;9.00;3.20;;;14.00;99.90;;;;;;4808932;29;20512;-77
2020/12/26 05:16:52;;;;;;;9.85;3.25;;;14.00;99.90;;;;;;4806436;29;20030;-78
2020/12/26 05:19:19;;;;;;;8.25;3.58;;;14.00;99.90;;;;;;4818925;29;20391;-78
2020/12/26 05:21:47;;;;;;;7.78;3.45;;;14.00;99.90;;;;;;4812934;29;20043;-78
2020/12/26 05:24:13;;;;;;;9.10;3.80;;;14.00;99.90;;;;;;4804051;29;20058;-78
2020/12/26 05:26:42;;;;;;;8.98;4.55;;;14.00;99.90;;;;;;4826631;29;20049;-78
2020/12/26 05:29:09;;;;;;;9.98;3.80;;;14.10;99.90;;;;;;4798223;29;20046;-78
2020/12/26 05:31:46;;;;;;;11.00;3.97;;;14.00;99.90;;;;;;4817903;29;20026;-78
2020/12/26 05:34:12;;;;;;;9.55;3.70;;;14.10;99.90;;;;;;4820062;29;20030;-78
2020/12/26 05:36:39;;;;;;;16.30;4.50;;;14.10;99.90;;;;;;4823322;29;20036;-78
2020/12/26 05:39:21;;;;;;;7.03;3.45;;;14.00;99.90;;;;;;4816695;29;20031;-78
2020/12/26 05:41:55;;;;;;;10.48;3.58;;;14.10;99.90;;;;;;4814191;29;20064;-78
2020/12/26 05:44:25;;;;;;;8.75;3.50;;;14.00;99.90;;;;;;4815210;29;20107;-78
2020/12/26 05:46:59;;;;;;;11.40;4.85;;;14.10;99.90;;;;;;4819881;29;20035;-78
2020/12/26 05:49:36;;;;;;;8.73;3.85;;;14.10;99.90;;;;;;4817445;29;20034;-78
2020/12/26 05:52:12;;;;;;;5.03;3.28;;;14.10;99.90;;;;;;4806255;29;20065;-78
2020/12/26 05:54:48;;;;;;;6.10;4.00;;;14.20;99.90;;;;;;4810216;29;20325;-78
2020/12/26 05:57:16;;;;;;;7.32;3.00;;;14.10;99.90;;;;;;4815005;29;20029;-79
2020/12/26 05:59:54;;;;;;;18.33;4.07;;;14.10;99.90;;;;;;4803865;29;20043;-78
2020/12/26 06:02:30;;;;;;;12.80;5.13;;;14.10;99.90;;;;;;4812151;29;20547;-77
2020/12/26 06:05:06;;;;;;;11.52;3.17;;;14.10;99.90;;;;;;4813480;29;20496;-78
2020/12/26 06:07:37;;;;;;;10.52;3.75;;;14.10;99.90;;;;;;4806628;29;20043;-77
2020/12/26 06:10:08;;;;;;;9.90;4.53;;;14.10;99.90;;;;;;4810899;29;20264;-77
2020/12/26 06:12:35;;;;;;;7.43;4.10;;;14.10;99.90;;;;;;4812454;29;20038;-77
2020/12/26 06:15:01;;;;;;;11.40;4.43;;;14.10;99.90;;;;;;4810956;29;20046;-78
2020/12/26 06:17:29;;;;;;;7.15;3.63;;;14.10;99.90;;;;;;4798935;29;20030;-78
2020/12/26 06:19:57;;;;;;;10.15;4.00;;;14.10;99.90;;;;;;4814175;29;20565;-77
2020/12/26 06:22:23;;;;;;;7.03;3.33;;;14.10;99.90;;;;;;4812157;29;20074;-78
2020/12/26 06:24:52;;;;;;;7.03;3.65;;;14.10;99.90;;;;;;4816023;29;20058;-77
2020/12/26 06:27:22;;;;;;;5.97;2.70;;;14.10;99.90;;;;;;4798042;29;20051;-77
2020/12/26 06:29:48;;;;;;;8.88;4.35;;;14.10;99.90;;;;;;4815749;29;20143;-78
2020/12/26 06:32:16;;;;;;;6.03;3.10;;;14.10;99.90;;;;;;4812281;29;20409;-78
2020/12/26 06:34:45;;;;;;;6.88;3.28;;;14.10;99.90;;;;;;4809385;29;20117;-78
2020/12/26 06:37:11;;;;;;;6.00;3.28;;;14.20;99.90;;;;;;4810072;29;20067;-78
2020/12/26 06:39:38;;;;;;;8.43;3.42;;;14.20;99.90;;;;;;4810890;29;20047;-78
2020/12/26 06:42:40;;;;;;;8.90;2.90;;;14.10;99.90;;;;;;4805136;29;20558;-78
2020/12/26 06:45:09;;;;;;;8.70;3.28;;;14.20;99.90;;;;;;4801597;29;20183;-78
2020/12/26 06:47:36;;;;;;;5.10;3.25;;;14.20;99.90;;;;;;4806114;29;20035;-78
2020/12/26 06:50:43;;;;;;;7.05;2.80;;;14.20;99.90;;;;;;4820973;29;20438;-78
2020/12/26 06:53:13;;;;;;;6.32;3.25;;;14.20;99.90;;;;;;4804426;29;20137;-78
2020/12/26 06:55:44;;;;;;;8.18;3.88;;;14.20;99.90;;;;;;4801796;29;20481;-78
2020/12/26 06:58:22;;;;;;;15.05;3.00;;;14.30;99.90;;;;;;4816532;29;20050;-78
2020/12/26 07:00:49;;;;;;;6.90;3.47;;;14.30;99.90;;;;;;4816772;29;20591;-78
2020/12/26 07:03:28;;;;;;;9.00;3.30;;;14.30;99.90;;;;;;4798900;29;20398;-78
2020/12/26 07:05:56;;;;;;;13.52;4.30;;;14.30;99.90;;;;;;4812715;29;20493;-78
2020/12/26 07:08:31;;;;;;;7.07;2.58;;;14.30;99.90;;;;;;4807707;29;20419;-78
2020/12/26 07:11:01;;;;;;;9.13;3.05;;;14.30;99.90;;;;;;4813288;29;20649;-78
2020/12/26 07:13:48;;;;;;;5.63;2.72;;;14.30;99.90;;;;;;4816319;29;20069;-78
2020/12/26 07:16:36;;;;;;;12.48;3.05;;;14.30;99.90;;;;;;4815955;29;20397;-78
2020/12/26 07:19:22;;;;;;;9.43;2.55;;;14.30;99.90;;;;;;4809145;29;20117;-78
2020/12/26 07:21:50;;;;;;;8.85;2.75;;;14.30;99.90;;;;;;4820303;29;20035;-78
2020/12/26 07:24:21;;;;;;;9.10;3.30;;;14.40;99.90;;;;;;4812637;29;20030;-78
2020/12/26 07:26:47;;;;;;;8.52;3.10;;;14.40;99.90;;;;;;4820971;29;20532;-78
2020/12/26 07:29:27;;;;;;;6.55;2.28;;;14.50;99.90;;;;;;4804948;29;20439;-78
2020/12/26 07:31:54;;;;;;;6.10;2.67;;;14.50;99.90;;;;;;4819378;29;20088;-78
2020/12/26 07:34:37;;;;;;;16.90;3.42;;;14.50;99.90;;;;;;4812387;29;20031;-78
2020/12/26 07:37:05;;;;;;;6.13;2.40;;;14.50;99.90;;;;;;4795532;29;20049;-78
2020/12/26 07:39:32;;;;;;;7.38;2.72;;;14.50;99.90;;;;;;4809116;29;20069;-78
2020/12/26 07:41:59;;;;;;;5.25;2.38;;;14.60;99.90;;;;;;4811951;29;20030;-78
2020/12/26 07:44:30;;;;;;;15.23;3.83;;;14.60;99.90;;;;;;4814291;29;20035;-78
2020/12/26 07:46:56;;;;;;;11.10;4.47;;;14.60;99.90;;;;;;4809958;29;20420;-78
2020/12/26 07:49:24;;;;;;;8.65;3.08;;;14.60;99.90;;;;;;4811218;29;20450;-78
2020/12/26 07:52:06;;;;;;;11.35;2.97;;;14.70;99.90;;;;;;4810360;29;20031;-77
2020/12/26 07:54:33;;;;;;;7.80;2.80;;;14.70;99.90;;;;;;4809582;29;20034;-75
2020/12/26 07:56:59;;;;;;;6.93;3.33;;;14.70;99.90;;;;;;4810969;29;20030;-77
2020/12/26 07:59:26;;;;;;;9.15;3.28;;;14.80;99.90;;;;;;4796833;29;20045;-76
2020/12/26 08:01:53;;;;;;;7.80;2.50;;;14.80;99.90;;;;;;4810051;29;20385;-76
2020/12/26 08:04:20;;;;;;;11.93;3.78;;;14.80;99.90;;;;;;4812658;29;20105;-77
2020/12/26 08:06:48;;;;;;;9.68;3.55;;;14.90;99.90;;;;;;4810960;29;20375;-76
2020/12/26 08:09:16;;;;;;;9.55;2.42;;;14.90;99.90;;;;;;4802277;29;20062;-77
2020/12/26 08:11:43;;;;;;;10.55;3.20;;;14.90;99.90;;;;;;4814641;29;20082;-76
2020/12/26 08:14:13;;;;;;;10.48;3.05;;;14.90;99.90;;;;;;4808899;29;20102;-77
2020/12/26 08:16:40;;;;;;;9.98;3.70;;;15.00;99.90;;;;;;4810564;29;20034;-76
2020/12/26 08:19:06;;;;;;;6.65;2.50;;;15.00;99.90;;;;;;4811228;29;20030;-77
2020/12/26 08:21:32;;;;;;;5.00;2.45;;;15.10;99.90;;;;;;4806933;29;20119;-77
2020/12/26 08:24:04;;;;;;;8.02;2.10;;;15.10;99.90;;;;;;4794677;29;20074;-77
2020/12/26 08:26:32;;;;;;;7.95;3.20;;;15.20;99.90;;;;;;4810789;29;20303;-77
2020/12/26 08:29:05;;;;;;;13.82;3.88;;;15.20;99.90;;;;;;4809443;29;20038;-77
2020/12/26 08:31:33;;;;;;;10.95;3.60;;;15.20;99.90;;;;;;4801414;29;20477;-77
2020/12/26 08:34:12;;;;;;;8.23;2.92;;;15.30;99.90;;;;;;4806057;29;20068;-77
2020/12/26 08:36:44;;;;;;;9.60;3.45;;;15.30;99.90;;;;;;4797491;29;20034;-77
2020/12/26 08:39:10;;;;;;;8.30;2.53;;;15.30;99.90;;;;;;4811017;29;20034;-77
2020/12/26 08:41:41;;;;;;;12.65;3.25;;;15.30;99.90;;;;;;4806397;29;20073;-77
2020/12/26 08:44:11;;;;;;;6.22;2.85;;;15.30;99.90;;;;;;4808157;29;20766;-76
2020/12/26 08:46:47;;;;;;;13.02;4.55;;;15.30;99.90;;;;;;4794457;29;20497;-77
2020/12/26 08:49:14;;;;;;;12.75;3.65;;;15.30;99.90;;;;;;4809695;29;20390;-77
2020/12/26 08:51:44;;;;;;;10.18;3.85;;;15.30;99.90;;;;;;4810324;29;20111;-77
2020/12/26 08:54:27;;;;;;;13.77;4.15;;;15.30;99.90;;;;;;4802725;29;20113;-77
2020/12/26 08:56:54;;;;;;;8.60;3.03;;;15.30;99.90;;;;;;4796446;29;20035;-76
2020/12/26 08:59:30;;;;;;;8.38;3.25;;;15.30;99.90;;;;;;4811085;29;20463;-77
2020/12/26 09:01:57;;;;;;;7.85;3.30;;;15.40;99.90;;;;;;4810502;29;20071;-77
2020/12/26 09:04:23;;;;;;;5.97;2.75;;;15.40;99.90;;;;;;4814995;29;20035;-77
2020/12/26 09:06:49;;;;;;;10.90;3.65;;;15.40;99.90;;;;;;4815785;29;20037;-78
2020/12/26 09:09:16;;;;;;;12.68;3.72;;;15.40;99.90;;;;;;4811182;29;20027;-77
2020/12/26 09:11:48;;;;;;;9.43;3.60;;;15.40;99.90;;;;;;4810863;29;20462;-77
2020/12/26 09:14:30;;;;;;;9.65;3.85;;;15.50;99.90;;;;;;4816566;29;20030;-76
2020/12/26 09:17:13;;;;;;;11.75;3.60;;;15.50;99.90;;;;;;4811278;29;20126;-77
2020/12/26 09:19:44;;;;;;;12.27;2.70;;;15.50;99.90;;;;;;4808136;29;20402;-77
2020/12/26 09:22:12;;;;;;;9.30;3.13;;;15.60;99.90;;;;;;4807121;29;20482;-77
2020/12/26 09:24:38;;;;;;;12.45;3.80;;;15.60;99.90;;;;;;4816270;29;20022;-77
2020/12/26 09:27:16;;;;;;;10.57;3.50;;;15.60;99.90;;;;;;4813901;29;20046;-77
2020/12/26 09:29:42;;;;;;;9.13;3.67;;;15.60;99.90;;;;;;4814213;29;20027;-78
2020/12/26 09:32:08;;;;;;;5.45;3.00;;;15.60;99.90;;;;;;4808797;29;20031;-76
2020/12/26 09:34:36;;;;;;;12.50;4.10;;;15.60;99.90;;;;;;4805183;29;20397;-76
2020/12/26 09:37:09;;;;;;;10.93;3.70;;;15.60;99.90;;;;;;4814073;29;20023;-75
2020/12/26 09:39:36;;;;;;;;;;;15.70;99.90;;;;;;4813606;29;20101;-77
2020/12/26 09:42:03;;;;;;;9.52;3.83;;;15.70;99.90;;;;;;4806179;29;20019;-77
2020/12/26 09:44:29;;;;;;;10.63;4.60;;;15.80;99.90;;;;;;4812766;29;20455;-78
2020/12/26 09:47:04;;;;;;;11.18;3.28;;;15.80;99.90;;;;;;4805529;29;20125;-78
2020/12/26 09:49:30;;;;;;;6.65;3.28;;;15.80;99.90;;;;;;4811086;29;20035;-77
2020/12/26 09:51:57;;;;;;;9.68;3.45;;;15.80;99.90;;;;;;4804153;29;20077;-78
2020/12/26 09:54:23;;;;;;;9.45;3.97;;;15.80;99.90;;;;;;4812049;29;20113;-78
2020/12/26 09:56:49;;;;;;;6.80;3.42;;;15.80;99.90;;;;;;4813273;29;20536;-78
2020/12/26 09:59:15;;;;;;;8.95;3.20;;;15.80;99.90;;;;;;4810676;29;20110;-78
2020/12/26 10:01:41;;;;;;;8.25;2.85;;;15.80;99.90;;;;;;4815455;29;20520;-77
2020/12/26 10:04:07;;;;;;;9.15;3.42;;;15.90;99.90;;;;;;4813763;29;20027;-77
2020/12/26 10:06:34;;;;;;;7.45;3.60;;;15.90;99.90;;;;;;4808778;29;20031;-79
2020/12/26 10:09:00;;;;;;;8.38;3.83;;;15.90;99.90;;;;;;4811746;29;20042;-78
2020/12/26 10:11:26;;;;;;;7.70;3.67;;;15.90;99.90;;;;;;4813536;29;20031;-78
2020/12/26 10:13:52;;;;;;;8.35;3.35;;;15.90;99.90;;;;;;4812797;29;20038;-78
2020/12/26 10:16:18;;;;;;;10.05;4.28;;;16.00;99.90;;;;;;4805339;29;20033;-78
2020/12/26 10:18:46;;;;;;;5.97;2.83;;;16.00;99.90;;;;;;4817556;29;20039;-78
2020/12/26 10:21:16;;;;;;;11.57;3.97;;;16.00;99.90;;;;;;4804844;29;20046;-78
2020/12/26 10:23:42;;;;;;;6.88;2.85;;;16.00;99.90;;;;;;4812693;29;20038;-78
2020/12/26 10:36:13;;;;;;;11.63;3.42;;;16.10;99.90;;;;;;4214264;29;20054;-78
2020/12/26 10:38:39;;;;;;;9.32;3.70;;;16.10;99.90;;;;;;4790168;29;20381;-78
2020/12/26 10:41:06;;;;;;;8.18;3.45;;;16.10;99.90;;;;;;4808513;29;20051;-78
2020/12/26 10:43:33;;;;;;;11.50;3.13;;;16.00;99.90;;;;;;4812481;29;20034;-77
2020/12/26 10:46:00;;;;;;;6.78;2.95;;;16.00;99.90;;;;;;4806885;29;20849;-77
2020/12/26 10:48:26;;;;;;;6.78;2.85;;;16.00;99.90;;;;;;4813625;29;20539;-77
2020/12/26 10:50:52;;;;;;;11.50;3.72;;;16.00;99.90;;;;;;4814237;29;20042;-77
2020/12/26 10:53:18;;;;;;;7.50;2.63;;;16.00;99.90;;;;;;4792650;29;20039;-78
2020/12/26 10:55:44;;;;;;;7.32;3.28;;;16.00;99.90;;;;;;4808471;29;20300;-78
2020/12/26 10:58:10;;;;;;;7.30;3.65;;;16.00;99.90;;;;;;4806370;29;20034;-76
2020/12/26 13:28:36;;;;;;;10.88;3.88;;;15.60;99.90;;;;;;5204654;24;20237;-75
2020/12/26 13:31:02;;;;;;;7.05;3.00;;;15.60;99.90;;;;;;4833631;29;20101;-73
2020/12/26 13:33:29;;;;;;;6.05;3.33;;;15.60;99.90;;;;;;4836222;29;20059;-72
2020/12/26 13:35:55;;;;;;;9.20;2.80;;;15.60;99.90;;;;;;4835936;29;20065;-72
2020/12/26 13:38:21;;;;;;;12.02;3.65;;;15.60;99.90;;;;;;4836304;29;20058;-77
2020/12/26 13:40:47;;;;;;;10.48;3.78;;;15.70;99.90;;;;;;4831556;29;20073;-74
2020/12/26 13:43:13;;;;;;;10.10;3.13;;;15.70;99.90;;;;;;4834201;29;20534;-74
2020/12/26 13:45:40;;;;;;;7.35;3.25;;;15.60;99.90;;;;;;4833857;29;20064;-75
2020/12/26 13:48:05;;;;;;;8.93;3.42;;;15.70;99.90;;;;;;4835394;29;20651;-75
2020/12/26 13:50:32;;;;;;;11.95;4.20;;;15.70;99.90;;;;;;4833557;29;20090;-74
2020/12/26 13:52:58;;;;;;;7.30;3.53;;;15.70;99.90;;;;;;4835230;29;20551;-74
2020/12/26 13:55:24;;;;;;;8.80;3.67;;;15.70;99.90;;;;;;4835930;29;20113;-74
2020/12/26 13:57:50;;;;;;;7.80;4.07;;;15.70;99.90;;;;;;4836059;29;20540;-74
2020/12/26 14:00:16;;;;;;;8.27;3.65;;;15.80;99.90;;;;;;4820517;29;20128;-74
2020/12/26 14:02:42;;;;;;;16.08;4.45;;;15.80;99.90;;;;;;4836684;29;20492;-75
2020/12/26 14:05:08;;;;;;;11.23;4.20;;;15.70;99.90;;;;;;4851167;24;20461;-78
2020/12/26 14:07:35;;;;;;;10.80;4.57;;;15.80;99.90;;;;;;4809685;29;20058;-77
2020/12/26 14:10:05;;;;;;;9.70;4.28;;;15.80;99.90;;;;;;4829621;29;20508;-78
2020/12/26 14:12:31;;;;;;;7.32;4.07;;;15.80;99.90;;;;;;4829607;29;20030;-76
2020/12/26 14:14:57;;;;;;;8.80;4.68;;;15.80;99.90;;;;;;4831382;29;20109;-76
2020/12/26 14:17:24;;;;;;;10.18;4.43;;;15.80;99.90;;;;;;4812314;29;20400;-77
2020/12/26 14:19:51;;;;;;;10.07;3.67;;;15.80;99.90;;;;;;4831698;29;20490;-76
2020/12/26 14:22:17;;;;;;;11.02;4.35;;;15.80;99.90;;;;;;4835154;29;20129;-76
2020/12/26 14:24:43;;;;;;;12.23;4.25;;;15.80;99.90;;;;;;4828803;29;20027;-76
2020/12/26 14:27:09;;;;;;;8.07;4.35;;;15.80;99.90;;;;;;4826869;29;20033;-76
2020/12/26 14:29:35;;;;;;;7.22;4.18;;;15.80;99.90;;;;;;4822032;29;20034;-75
2020/12/26 14:32:01;;;;;;;11.80;3.45;;;15.80;99.90;;;;;;4829079;29;20065;-76
2020/12/26 14:34:27;;;;;;;13.60;5.10;;;15.80;99.90;;;;;;4824553;29;20030;-76
2020/12/26 14:36:54;;;;;;;8.77;3.80;;;15.80;99.90;;;;;;4830838;29;20033;-76
2020/12/26 14:39:20;;;;;;;15.90;4.78;;;15.80;99.90;;;;;;4823191;29;20034;-76
2020/12/26 14:41:47;;;;;;;9.23;4.45;;;15.80;99.90;;;;;;4817729;29;20569;-76
2020/12/26 14:44:13;;;;;;;6.90;4.13;;;15.80;99.90;;;;;;4828256;29;20488;-76
2020/12/26 14:46:40;;;;;;;9.45;3.60;;;15.80;99.90;;;;;;4826019;29;20030;-76
2020/12/26 14:49:07;;;;;;;7.05;3.40;;;15.80;99.90;;;;;;4826251;29;20029;-77
2020/12/26 14:51:33;;;;;;;9.45;3.72;;;15.80;99.90;;;;;;4805351;29;20034;-77
2020/12/26 14:53:59;;;;;;;7.47;4.47;;;15.80;99.90;;;;;;4811131;29;20022;-77
2020/12/26 14:56:25;;;;;;;12.05;4.82;;;15.80;99.90;;;;;;4824219;29;20070;-77
2020/12/26 14:58:52;;;;;;;18.95;8.52;;;15.80;99.90;;;;;;4823917;29;20557;-77
2020/12/26 15:01:19;;;;;;;38.53;20.70;;;15.70;99.90;;;;;;4819824;29;20063;-77
2020/12/26 15:03:45;;;;;;;10.77;5.68;;;15.60;99.90;;;;;;4820767;29;20273;-77
2020/12/26 15:06:11;;;;;;;5.63;2.67;;;15.40;99.90;;;;;;4818665;29;20050;-76
2020/12/26 15:08:38;;;;;;;4.65;2.00;;;15.00;99.90;;;;;;4823831;29;20450;-77
2020/12/26 15:11:07;;;;;;;7.95;3.00;;;14.60;99.90;;;;;;4832623;29;20400;-76
2020/12/26 15:13:38;;;;;;;5.38;2.35;;;14.20;99.90;;;;;;4820067;29;20038;-77
2020/12/26 15:16:08;;;;;;;6.80;3.05;;;13.80;99.90;;;;;;4821110;29;20031;-77
2020/12/26 15:18:34;;;;;;;6.38;2.95;;;13.60;99.90;;;;;;4821475;29;20030;-77
2020/12/26 15:21:00;;;;;;;5.65;2.72;;;13.60;99.90;;;;;;4824553;29;20070;-76
2020/12/26 15:23:26;;;;;;;3.15;2.30;;;13.70;99.90;;;;;;4828385;29;20034;-76
2020/12/26 15:25:52;;;;;;;4.95;2.20;;;13.50;99.90;;;;;;4838091;29;20078;-76
2020/12/26 15:28:18;;;;;;;3.47;1.80;;;13.40;99.90;;;;;;4818122;29;20393;-77